Terminal Aerodrome Forecast
Issued by NWS Cleveland, OH

Home | Current Version | Previous Version | Text Only | Print | Product List | Glossary On
Versions: 1 2 3 4 5 6 7 8 9 10 11 12 13 14 15 16 17 18 19
000
FTUS41 KCLE 160400 AAA
TAFYNG
TAF AMD
KYNG 160407Z 1604/1624 31008KT P6SM -SN SCT010 BKN015
     FM160800 VRB03KT P6SM SCT040
     FM161500 13006KT P6SM SCT250=

USA.gov is the U.S. government's official web portal to all federal, state and local government web resources and services.